createdAt,value
2022-08-08T00:02:43.208Z,2.00
2022-08-08T00:06:03.070Z,1.97
2022-08-08T00:09:16.125Z,2.05
2022-08-08T00:12:24.872Z,2.05
2022-08-08T00:15:56.658Z,2.20
2022-08-08T00:19:03.969Z,2.30
2022-08-08T00:22:13.608Z,2.10
2022-08-08T00:25:22.945Z,2.03
2022-08-08T00:28:35.693Z,2.30
2022-08-08T00:32:20.178Z,2.47
2022-08-08T00:35:32.665Z,2.10
2022-08-08T00:38:54.634Z,2.30
2022-08-08T00:42:46.266Z,2.13
2022-08-08T00:46:04.898Z,2.15
2022-08-08T00:49:42.264Z,2.28
2022-08-08T00:53:01.369Z,2.17
2022-08-08T00:56:41.630Z,2.33
2022-08-08T01:00:10.668Z,2.33
2022-08-08T01:04:01.854Z,2.70
2022-08-08T01:07:56.590Z,2.58
2022-08-08T01:11:29.978Z,2.40
2022-08-08T01:15:17.194Z,2.30
2022-08-08T01:18:54.124Z,2.53
2022-08-08T01:22:32.473Z,2.47
2022-08-08T01:26:11.462Z,2.22
2022-08-08T01:29:59.770Z,2.17
2022-08-08T01:33:42.863Z,2.47
2022-08-08T01:37:58.337Z,2.50
2022-08-08T01:41:16.041Z,2.65
2022-08-08T01:44:32.137Z,2.22
2022-08-08T01:48:16.242Z,2.43
2022-08-08T01:52:04.504Z,2.40
2022-08-08T01:55:25.516Z,2.22
2022-08-08T01:58:47.015Z,2.53
2022-08-08T02:02:09.302Z,2.40
2022-08-08T02:05:33.573Z,2.40
2022-08-08T02:08:48.963Z,2.53
2022-08-08T02:12:00.448Z,2.78
2022-08-08T02:15:12.374Z,2.53
2022-08-08T02:18:20.620Z,2.30
2022-08-08T02:21:44.538Z,2.83
2022-08-08T02:24:56.996Z,2.37
2022-08-08T02:28:02.961Z,2.60
2022-08-08T02:31:43.508Z,2.47
2022-08-08T02:35:10.805Z,2.63
2022-08-08T02:38:38.374Z,2.43
2022-08-08T02:42:13.974Z,2.87
2022-08-08T02:45:56.979Z,2.63
2022-08-08T02:49:47.862Z,2.72
2022-08-08T02:53:11.054Z,2.92
2022-08-08T02:57:02.077Z,2.97
2022-08-08T03:00:31.142Z,2.57
2022-08-08T03:05:03.009Z,2.78
2022-08-08T03:08:17.313Z,2.75
2022-08-08T03:12:08.439Z,2.70
2022-08-08T03:16:02.086Z,2.70
2022-08-08T03:19:24.653Z,2.80
2022-08-08T03:22:38.270Z,2.45
2022-08-08T03:25:50.092Z,2.80
2022-08-08T03:28:59.973Z,2.92
2022-08-08T03:32:29.230Z,2.90
2022-08-08T03:35:39.105Z,2.83
2022-08-08T03:38:58.087Z,2.83
2022-08-08T03:42:28.446Z,2.90
2022-08-08T03:46:06.680Z,2.97
2022-08-08T03:49:30.908Z,2.70
2022-08-08T03:52:19.538Z,2.77
2022-08-08T03:55:56.536Z,3.10
2022-08-08T03:58:51.481Z,3.28
2022-08-08T04:02:32.866Z,2.95
2022-08-08T04:05:19.415Z,3.03
2022-08-08T04:08:33.614Z,3.03
2022-08-08T04:11:59.221Z,3.20
2022-08-08T04:15:06.156Z,3.00
2022-08-08T04:18:16.426Z,2.92
2022-08-08T04:21:22.948Z,3.00
2022-08-08T04:24:29.374Z,2.83
2022-08-08T04:28:01.916Z,2.63
2022-08-08T04:30:58.857Z,2.90
2022-08-08T04:34:07.285Z,3.20
2022-08-08T04:37:11.818Z,3.20
2022-08-08T04:40:14.809Z,3.40
2022-08-08T04:43:20.552Z,2.97
2022-08-08T04:46:26.288Z,2.97
2022-08-08T04:50:00.807Z,3.10
2022-08-08T04:52:58.592Z,2.75
2022-08-08T04:56:01.826Z,2.87
2022-08-08T04:59:05.708Z,2.83
2022-08-08T05:02:13.651Z,3.17
2022-08-08T05:05:20.453Z,3.22
2022-08-08T05:08:40.431Z,2.83
2022-08-08T05:11:47.654Z,3.00
2022-08-08T05:14:52.335Z,3.30
2022-08-08T05:17:57.245Z,3.05
2022-08-08T05:21:00.722Z,2.95
2022-08-08T05:24:10.461Z,3.13
2022-08-08T05:27:13.414Z,2.93
2022-08-08T05:30:16.181Z,2.85
2022-08-08T05:33:20.843Z,2.92
2022-08-08T05:36:28.186Z,2.85
2022-08-08T05:39:34.975Z,3.17
2022-08-08T05:42:43.169Z,2.60
2022-08-08T05:45:54.921Z,2.95
2022-08-08T05:49:00.344Z,2.60
2022-08-08T05:52:03.885Z,2.90
2022-08-08T05:55:10.639Z,2.80
2022-08-08T05:58:20.391Z,2.70
2022-08-08T06:01:55.659Z,2.60
2022-08-08T06:04:57.233Z,2.60
2022-08-08T06:08:03.074Z,2.60
2022-08-08T06:11:13.436Z,3.10
2022-08-08T06:14:20.415Z,2.63
2022-08-08T06:17:50.424Z,2.65
2022-08-08T06:20:56.366Z,2.75
2022-08-08T06:24:03.412Z,2.63
2022-08-08T06:27:11.760Z,2.67
2022-08-08T06:30:19.774Z,2.67
2022-08-08T06:33:36.862Z,2.78
2022-08-08T06:36:53.832Z,2.28
2022-08-08T06:40:00.653Z,2.90
2022-08-08T06:43:09.498Z,2.80
2022-08-08T06:46:13.679Z,2.47
2022-08-08T06:49:19.208Z,2.63
2022-08-08T06:52:44.108Z,2.60
2022-08-08T06:56:02.515Z,2.70
2022-08-08T06:59:12.156Z,2.60
2022-08-08T07:02:28.507Z,2.40
2022-08-08T07:05:40.344Z,2.30
2022-08-08T07:08:49.431Z,2.47
2022-08-08T07:11:59.019Z,2.63
2022-08-08T07:15:06.143Z,2.50
2022-08-08T07:18:40.837Z,2.67
2022-08-08T07:21:59.162Z,2.40
2022-08-08T07:25:07.090Z,2.60
2022-08-08T07:28:18.788Z,2.45
2022-08-08T07:31:23.111Z,2.08
2022-08-08T07:34:31.608Z,2.27
2022-08-08T07:38:04.519Z,3.05
2022-08-08T07:41:04.420Z,3.60
2022-08-08T07:44:33.494Z,3.38
2022-08-08T07:47:39.149Z,4.25
2022-08-08T07:50:44.056Z,4.83
2022-08-08T07:54:02.826Z,5.32
2022-08-08T07:57:21.175Z,5.03
2022-08-08T08:00:28.183Z,4.47
2022-08-08T08:03:43.439Z,6.20
2022-08-08T08:06:47.527Z,5.03
2022-08-08T08:09:51.770Z,5.70
2022-08-08T08:13:25.444Z,5.35
2022-08-08T08:16:50.304Z,4.30
2022-08-08T08:19:58.574Z,2.85
2022-08-08T08:23:01.210Z,2.97
2022-08-08T08:26:04.531Z,2.50
2022-08-08T08:29:08.760Z,2.40
2022-08-08T08:32:31.666Z,2.20
2022-08-08T08:36:18.587Z,1.98
2022-08-08T08:39:01.904Z,1.90
2022-08-08T08:42:12.004Z,1.90
2022-08-08T08:45:22.621Z,2.15
2022-08-08T08:48:26.739Z,1.90
2022-08-08T08:51:38.558Z,1.90
2022-08-08T08:54:58.071Z,1.77
2022-08-08T08:58:02.031Z,1.80
2022-08-08T09:01:09.653Z,1.95
2022-08-08T09:04:30.120Z,1.65
2022-08-08T09:07:39.438Z,1.80
2022-08-08T09:10:55.645Z,1.73
2022-08-08T09:14:02.254Z,1.60
2022-08-08T09:17:12.830Z,1.70
2022-08-08T09:22:00.317Z,1.60
2022-08-08T09:23:41.193Z,1.52
2022-08-08T09:26:51.627Z,1.60
2022-08-08T09:30:03.189Z,1.60
2022-08-08T09:33:13.193Z,1.70
2022-08-08T09:36:35.845Z,1.67
2022-08-08T09:39:44.000Z,1.90
2022-08-08T09:42:51.755Z,1.50
2022-08-08T09:46:02.842Z,1.92
2022-08-08T09:49:41.533Z,1.60
2022-08-08T09:52:56.317Z,2.10
2022-08-08T09:56:04.192Z,1.80
2022-08-08T09:59:40.377Z,1.80
2022-08-08T10:02:40.244Z,1.52
2022-08-08T10:05:46.794Z,1.90
2022-08-08T10:08:51.915Z,1.80
2022-08-08T10:12:25.815Z,1.77
2022-08-08T10:15:18.980Z,1.60
2022-08-08T10:18:26.132Z,1.70
2022-08-08T10:21:33.750Z,1.88
2022-08-08T10:24:48.054Z,1.83
2022-08-08T10:27:54.215Z,1.70
2022-08-08T10:31:46.525Z,1.70
2022-08-08T10:35:01.256Z,1.55
2022-08-08T10:38:10.867Z,1.80
2022-08-08T10:41:20.127Z,1.60
2022-08-08T10:44:30.993Z,1.80
2022-08-08T10:47:43.269Z,1.60
2022-08-08T10:50:47.293Z,1.90
2022-08-08T10:53:57.750Z,1.80
2022-08-08T10:57:04.338Z,1.63
2022-08-08T11:00:11.764Z,2.10
2022-08-08T11:03:17.957Z,1.73
2022-08-08T11:06:20.843Z,1.88
2022-08-08T11:09:24.917Z,1.95
2022-08-08T11:12:28.787Z,1.90
2022-08-08T11:15:32.093Z,1.90
2022-08-08T11:18:35.829Z,1.80
2022-08-08T11:21:45.226Z,1.90
2022-08-08T11:25:02.942Z,1.90
2022-08-08T11:28:19.970Z,1.85
2022-08-08T11:31:27.328Z,1.80
2022-08-08T11:34:52.557Z,1.77
2022-08-08T11:38:39.462Z,1.73
2022-08-08T11:41:23.853Z,1.83
2022-08-08T11:44:29.752Z,1.92
2022-08-08T11:47:39.607Z,1.90
2022-08-08T11:50:57.338Z,1.80
2022-08-08T11:54:02.267Z,1.73
2022-08-08T11:57:14.044Z,1.90
2022-08-08T12:00:20.212Z,2.13
2022-08-08T12:03:24.763Z,2.10
2022-08-08T12:06:33.617Z,2.00
2022-08-08T12:09:59.786Z,2.00
2022-08-08T12:13:05.609Z,1.85
2022-08-08T12:16:09.744Z,1.55
2022-08-08T12:19:13.046Z,1.80
2022-08-08T12:22:36.850Z,1.70
2022-08-08T12:25:38.662Z,1.88
2022-08-08T12:28:57.502Z,1.83
2022-08-08T12:32:04.610Z,1.80
2022-08-08T12:35:23.440Z,1.67
2022-08-08T12:38:31.206Z,1.90
2022-08-08T12:41:57.583Z,1.70
2022-08-08T12:45:54.858Z,1.80
2022-08-08T12:48:37.332Z,1.98
2022-08-08T12:51:50.061Z,1.85
2022-08-08T12:55:09.467Z,1.90
2022-08-08T12:58:19.474Z,2.10
2022-08-08T13:01:37.023Z,1.80
2022-08-08T13:04:51.727Z,1.70
2022-08-08T13:08:04.494Z,2.10
2022-08-08T13:11:18.904Z,1.87
2022-08-08T13:14:21.727Z,1.80
2022-08-08T13:17:54.440Z,1.92
2022-08-08T13:20:50.705Z,1.95
2022-08-08T13:23:56.055Z,1.80
2022-08-08T13:27:10.824Z,1.93
2022-08-08T13:30:20.852Z,2.17
2022-08-08T13:33:41.902Z,1.80
2022-08-08T13:36:46.510Z,1.60
2022-08-08T13:39:56.405Z,2.00
2022-08-08T13:42:59.536Z,1.80
2022-08-08T13:46:26.501Z,1.80
2022-08-08T13:50:39.877Z,1.83
2022-08-08T13:52:55.514Z,1.55
2022-08-08T13:56:01.381Z,1.88
2022-08-08T13:59:05.397Z,1.60
2022-08-08T14:02:20.701Z,1.90
2022-08-08T14:05:29.078Z,1.90
2022-08-08T14:08:45.926Z,2.10
2022-08-08T14:11:49.171Z,1.98
2022-08-08T14:14:52.216Z,1.80
2022-08-08T14:17:58.145Z,2.05
2022-08-08T14:21:22.400Z,1.80
2022-08-08T14:24:31.711Z,2.10
2022-08-08T14:27:37.630Z,1.80
2022-08-08T14:30:50.020Z,1.77
2022-08-08T14:33:54.698Z,1.77
2022-08-08T14:36:58.973Z,1.80
2022-08-08T14:40:05.623Z,1.92
2022-08-08T14:43:31.556Z,2.38
2022-08-08T14:46:33.019Z,2.10
2022-08-08T14:49:51.870Z,2.22
2022-08-08T14:53:04.264Z,2.10
2022-08-08T14:56:07.621Z,2.00
2022-08-08T14:59:22.682Z,1.85
2022-08-08T15:02:36.095Z,2.13
2022-08-08T15:05:59.012Z,2.05
2022-08-08T15:09:03.441Z,2.42
2022-08-08T15:12:07.283Z,2.10
2022-08-08T15:15:18.925Z,2.42
2022-08-08T15:18:36.566Z,1.90
2022-08-08T15:21:44.848Z,1.98
2022-08-08T15:24:50.031Z,2.20
2022-08-08T15:28:04.721Z,2.08
2022-08-08T15:31:55.652Z,2.22
2022-08-08T15:34:39.222Z,1.90
2022-08-08T15:37:42.451Z,1.90
2022-08-08T15:40:46.467Z,1.73
2022-08-08T15:44:00.743Z,1.90
2022-08-08T15:47:04.623Z,1.92
2022-08-08T15:50:19.489Z,1.70
2022-08-08T15:53:27.642Z,2.35
2022-08-08T15:56:37.303Z,1.92
2022-08-08T16:00:06.224Z,1.88
2022-08-08T16:03:04.298Z,2.20
2022-08-08T16:06:08.035Z,2.10
2022-08-08T16:13:09.724Z,2.08
2022-08-08T16:13:11.974Z,1.95
2022-08-08T16:16:13.368Z,2.25
2022-08-08T16:19:20.421Z,2.10
2022-08-08T16:22:38.957Z,2.00
2022-08-08T16:25:46.310Z,2.20
2022-08-08T16:28:57.073Z,2.10
2022-08-08T16:31:59.881Z,1.90
2022-08-08T16:35:04.533Z,1.92
2022-08-08T16:38:16.225Z,2.30
2022-08-08T16:41:29.416Z,2.28
2022-08-08T16:44:35.531Z,2.30
2022-08-08T16:47:41.597Z,2.20
2022-08-08T16:50:45.385Z,1.90
2022-08-08T16:55:06.467Z,2.00
2022-08-08T16:57:43.465Z,2.00
2022-08-08T17:00:37.002Z,2.22
2022-08-08T17:04:00.293Z,2.00
2022-08-08T17:07:02.747Z,2.20
2022-08-08T17:10:07.018Z,2.10
2022-08-08T17:13:09.648Z,1.85
2022-08-08T17:16:15.029Z,2.42
2022-08-08T17:19:18.352Z,2.20
2022-08-08T17:22:21.590Z,2.28
2022-08-08T17:25:53.529Z,3.17
2022-08-08T17:28:56.712Z,2.78
2022-08-08T17:32:00.913Z,2.50
2022-08-08T17:35:55.287Z,2.50
2022-08-08T17:38:28.582Z,3.17
2022-08-08T17:41:38.727Z,2.53
2022-08-08T17:44:44.486Z,2.30
2022-08-08T17:47:50.978Z,2.60
2022-08-08T17:50:56.269Z,2.35
2022-08-08T17:53:59.189Z,2.50
2022-08-08T17:57:08.112Z,2.50
2022-08-08T18:00:19.592Z,2.40
2022-08-08T18:03:25.812Z,2.37
2022-08-08T18:06:31.146Z,2.60
2022-08-08T18:09:38.644Z,3.20
2022-08-08T18:12:42.888Z,3.33
2022-08-08T18:15:48.744Z,2.65
2022-08-08T18:19:04.926Z,2.53
2022-08-08T18:22:07.695Z,2.70
2022-08-08T18:25:37.192Z,3.10
2022-08-08T18:28:54.179Z,2.70
2022-08-08T18:31:57.963Z,2.63
2022-08-08T18:35:02.022Z,2.40
2022-08-08T18:38:16.986Z,2.63
2022-08-08T18:41:19.929Z,2.80
2022-08-08T18:44:54.992Z,2.50
2022-08-08T18:47:58.932Z,2.42
2022-08-08T18:51:03.129Z,2.43
2022-08-08T18:54:13.804Z,2.80
2022-08-08T18:57:25.565Z,2.92
2022-08-08T19:00:29.548Z,2.50
2022-08-08T19:04:10.224Z,2.38
2022-08-08T19:06:56.896Z,2.70
2022-08-08T19:10:14.326Z,2.65
2022-08-08T19:13:21.726Z,2.92
2022-08-08T19:16:32.162Z,2.70
2022-08-08T19:19:36.277Z,3.40
2022-08-08T19:22:40.288Z,3.07
2022-08-08T19:26:19.697Z,2.88
2022-08-08T19:29:10.745Z,2.80
2022-08-08T19:32:19.507Z,2.30
2022-08-08T19:35:45.159Z,2.50
2022-08-08T19:38:51.345Z,2.47
2022-08-08T19:41:54.234Z,2.60
2022-08-08T19:45:05.321Z,2.45
2022-08-08T19:48:29.526Z,2.25
2022-08-08T19:51:34.290Z,2.58
2022-08-08T19:54:39.176Z,2.40
2022-08-08T19:57:43.509Z,2.38
2022-08-08T20:00:46.176Z,2.35
2022-08-08T20:04:01.737Z,2.58
2022-08-08T20:08:29.340Z,2.42
2022-08-08T20:10:32.793Z,2.30
2022-08-08T20:14:12.340Z,2.33
2022-08-08T20:16:59.586Z,2.65
2022-08-08T20:20:02.591Z,2.40
2022-08-08T20:23:12.530Z,2.78
2022-08-08T20:26:27.396Z,2.57
2022-08-08T20:29:45.833Z,2.90
2022-08-08T20:32:57.839Z,2.67
2022-08-08T20:36:08.447Z,2.58
2022-08-08T20:39:11.646Z,2.60
2022-08-08T20:42:16.478Z,2.50
2022-08-08T20:45:19.259Z,2.65
2022-08-08T20:48:42.033Z,2.70
2022-08-08T20:51:44.647Z,2.60
2022-08-08T20:54:50.450Z,2.75
2022-08-08T20:57:57.891Z,2.60
2022-08-08T21:01:00.796Z,2.63
2022-08-08T21:04:03.607Z,2.80
2022-08-08T21:07:08.282Z,2.72
2022-08-08T21:10:12.700Z,2.53
2022-08-08T21:13:17.284Z,2.50
2022-08-08T21:16:20.722Z,2.40
2022-08-08T21:19:34.198Z,2.63
2022-08-08T21:22:48.540Z,2.50
2022-08-08T21:25:55.081Z,2.47
2022-08-08T21:29:01.014Z,2.40
2022-08-08T21:32:14.366Z,2.20
2022-08-08T21:36:16.114Z,2.50
2022-08-08T21:38:50.803Z,2.30
2022-08-08T21:41:59.132Z,2.70
2022-08-08T21:45:44.545Z,2.60
2022-08-08T21:48:35.228Z,2.58
2022-08-08T21:54:23.064Z,2.90
2022-08-08T21:56:18.453Z,2.60
2022-08-08T21:58:37.364Z,2.50
2022-08-08T22:01:42.616Z,2.67
2022-08-08T22:04:45.579Z,2.80
2022-08-08T22:07:49.253Z,2.40
2022-08-08T22:10:54.029Z,2.47
2022-08-08T22:13:57.324Z,2.35
2022-08-08T22:17:02.748Z,2.43
2022-08-08T22:20:12.907Z,2.63
2022-08-08T22:23:21.753Z,2.33
2022-08-08T22:26:32.438Z,2.70
2022-08-08T22:29:59.523Z,2.45
2022-08-08T22:32:59.425Z,2.40
2022-08-08T22:36:04.611Z,2.47
2022-08-08T22:39:19.678Z,2.50
2022-08-08T22:42:27.208Z,2.15
2022-08-08T22:45:34.802Z,2.45
2022-08-08T22:48:38.909Z,2.40
2022-08-08T22:51:46.699Z,2.40
2022-08-08T22:54:58.852Z,2.60
2022-08-08T22:58:07.397Z,2.50
2022-08-08T23:01:30.237Z,2.40
2022-08-08T23:04:36.318Z,2.67
2022-08-08T23:07:51.068Z,2.28
2022-08-08T23:10:57.842Z,2.67
2022-08-08T23:14:08.422Z,2.63
2022-08-08T23:17:14.583Z,2.63
2022-08-08T23:20:21.280Z,1.90
2022-08-08T23:23:29.948Z,2.25
2022-08-08T23:26:34.403Z,2.83
2022-08-08T23:29:37.574Z,2.50
2022-08-08T23:32:41.719Z,2.20
2022-08-08T23:35:58.914Z,2.30
2022-08-08T23:39:11.123Z,2.20
2022-08-08T23:42:13.797Z,2.33
2022-08-08T23:45:19.329Z,2.28
2022-08-08T23:49:04.911Z,2.50
2022-08-08T23:52:08.805Z,2.13
2022-08-08T23:55:22.737Z,2.30
2022-08-08T23:58:37.427Z,2.20
